createdAt,value
2023-01-02T00:00:17.452Z,3
2023-01-02T00:01:13.681Z,3
2023-01-02T00:02:13.701Z,3
2023-01-02T00:03:13.835Z,3
2023-01-02T00:04:13.710Z,3
2023-01-02T00:05:13.703Z,3
2023-01-02T00:06:13.676Z,3
2023-01-02T00:07:13.706Z,3
2023-01-02T00:08:13.694Z,2
2023-01-02T00:09:13.701Z,3
2023-01-02T00:10:13.714Z,2
2023-01-02T00:11:13.669Z,3
2023-01-02T00:12:13.699Z,3
2023-01-02T00:13:13.692Z,2
2023-01-02T00:14:13.678Z,3
2023-01-02T00:15:13.695Z,2
2023-01-02T00:16:13.735Z,3
2023-01-02T00:17:13.687Z,2
2023-01-02T00:18:13.675Z,2
2023-01-02T00:19:13.687Z,2
2023-01-02T00:20:13.715Z,2
2023-01-02T00:21:13.688Z,2
2023-01-02T00:22:13.673Z,3
2023-01-02T00:23:13.721Z,2
2023-01-02T00:24:13.675Z,3
2023-01-02T00:25:13.703Z,3
2023-01-02T00:26:13.711Z,2
2023-01-02T00:27:13.679Z,2
2023-01-02T00:29:13.680Z,2
2023-01-02T00:30:13.695Z,2
2023-01-02T00:31:13.772Z,2
2023-01-02T00:32:13.790Z,3
2023-01-02T00:33:13.684Z,2
2023-01-02T00:34:13.703Z,2
2023-01-02T00:35:13.718Z,2
2023-01-02T00:36:13.711Z,3
2023-01-02T00:37:13.670Z,2
2023-01-02T00:38:13.727Z,2
2023-01-02T00:39:14.178Z,2
2023-01-02T00:40:13.792Z,3
2023-01-02T00:41:13.956Z,2
2023-01-02T00:42:13.700Z,3
2023-01-02T00:43:13.686Z,2
2023-01-02T00:44:13.687Z,3
2023-01-02T00:45:13.762Z,2
2023-01-02T00:46:13.704Z,2
2023-01-02T00:47:13.686Z,2
2023-01-02T00:48:13.689Z,2
2023-01-02T00:49:13.686Z,2
2023-01-02T00:50:13.692Z,3
2023-01-02T00:51:13.700Z,3
2023-01-02T00:52:13.715Z,2
2023-01-02T00:53:13.722Z,2
2023-01-02T00:54:13.698Z,3
2023-01-02T00:55:13.769Z,2
2023-01-02T00:56:13.937Z,2
2023-01-02T00:57:13.701Z,2
2023-01-02T00:58:13.693Z,2
2023-01-02T00:59:13.686Z,2
2023-01-02T01:00:15.862Z,2
2023-01-02T01:01:13.754Z,2
2023-01-02T01:02:13.791Z,2
2023-01-02T01:03:13.710Z,3
2023-01-02T01:04:13.680Z,2
2023-01-02T01:05:13.722Z,2
2023-01-02T01:06:13.796Z,2
2023-01-02T01:07:13.695Z,2
2023-01-02T01:08:13.723Z,2
2023-01-02T01:09:13.735Z,3
2023-01-02T01:10:13.728Z,2
2023-01-02T01:11:13.767Z,2
2023-01-02T01:12:13.689Z,2
2023-01-02T01:13:13.766Z,2
2023-01-02T01:14:13.696Z,2
2023-01-02T01:15:13.695Z,2
2023-01-02T01:16:13.768Z,2
2023-01-02T01:17:13.714Z,3
2023-01-02T01:18:13.679Z,2
2023-01-02T01:19:13.681Z,2
2023-01-02T01:20:13.767Z,3
2023-01-02T01:21:13.697Z,3
2023-01-02T01:22:13.694Z,3
2023-01-02T01:23:13.696Z,2
2023-01-02T01:24:13.707Z,3
2023-01-02T01:25:13.685Z,2
2023-01-02T01:26:13.779Z,2
2023-01-02T01:27:13.692Z,2
2023-01-02T01:28:13.689Z,3
2023-01-02T01:29:13.693Z,2
2023-01-02T01:30:13.725Z,2
2023-01-02T01:31:13.751Z,3
2023-01-02T01:32:13.690Z,3
2023-01-02T01:33:13.683Z,2
2023-01-02T01:34:13.689Z,3
2023-01-02T01:35:13.698Z,3
2023-01-02T01:36:13.731Z,3
2023-01-02T01:37:13.696Z,3
2023-01-02T01:38:13.822Z,2
2023-01-02T01:39:13.716Z,3
2023-01-02T01:40:13.728Z,2
2023-01-02T01:41:13.764Z,3
2023-01-02T01:42:13.713Z,2
2023-01-02T01:43:13.991Z,2
2023-01-02T01:44:13.689Z,3
2023-01-02T01:45:13.680Z,2
2023-01-02T01:46:13.737Z,3
2023-01-02T01:47:13.695Z,2
2023-01-02T01:48:13.705Z,3
2023-01-02T01:49:13.715Z,2
2023-01-02T01:50:13.777Z,2
2023-01-02T01:51:13.708Z,2
2023-01-02T01:52:13.703Z,2
2023-01-02T01:53:13.689Z,2
2023-01-02T01:55:13.712Z,2
2023-01-02T01:56:13.696Z,2
2023-01-02T01:57:13.688Z,2
2023-01-02T01:58:13.688Z,2
2023-01-02T01:59:13.696Z,3
2023-01-02T02:00:13.703Z,2
2023-01-02T02:01:13.880Z,2
2023-01-02T02:02:13.875Z,2
2023-01-02T02:03:13.727Z,2
2023-01-02T02:04:13.704Z,3
2023-01-02T02:05:13.699Z,3
2023-01-02T02:06:13.709Z,2
2023-01-02T02:07:13.707Z,2
2023-01-02T02:08:23.788Z,2
2023-01-02T02:09:13.730Z,2
2023-01-02T02:10:13.695Z,2
2023-01-02T02:11:13.769Z,2
2023-01-02T02:12:13.702Z,3
2023-01-02T02:13:13.709Z,3
2023-01-02T02:14:13.694Z,2
2023-01-02T02:15:13.682Z,3
2023-01-02T02:16:13.757Z,2
2023-01-02T02:17:13.708Z,2
2023-01-02T02:18:13.703Z,2
2023-01-02T02:19:13.692Z,2
2023-01-02T02:20:13.687Z,2
2023-01-02T02:21:13.705Z,2
2023-01-02T02:22:13.699Z,2
2023-01-02T02:23:13.710Z,3
2023-01-02T02:24:13.740Z,2
2023-01-02T02:25:13.682Z,2
2023-01-02T02:26:13.745Z,2
2023-01-02T02:27:13.712Z,2
2023-01-02T02:28:13.712Z,2
2023-01-02T02:29:13.708Z,2
2023-01-02T02:30:13.718Z,3
2023-01-02T02:31:13.723Z,3
2023-01-02T02:32:13.708Z,3
2023-01-02T02:33:13.728Z,2
2023-01-02T02:34:13.799Z,2
2023-01-02T02:35:13.740Z,2
2023-01-02T02:36:13.719Z,2
2023-01-02T02:37:13.728Z,2
2023-01-02T02:38:13.707Z,2
2023-01-02T02:39:13.713Z,3
2023-01-02T02:40:13.713Z,2
2023-01-02T02:41:13.815Z,2
2023-01-02T02:42:13.723Z,2
2023-01-02T02:43:13.696Z,2
2023-01-02T02:44:13.713Z,2
2023-01-02T02:45:13.693Z,2
2023-01-02T02:46:13.744Z,2
2023-01-02T02:47:13.701Z,2
2023-01-02T02:48:13.735Z,2
2023-01-02T02:49:13.699Z,2
2023-01-02T02:50:13.734Z,2
2023-01-02T02:51:13.718Z,3
2023-01-02T02:52:13.697Z,2
2023-01-02T02:53:13.704Z,2
2023-01-02T02:54:13.731Z,3
2023-01-02T02:55:13.699Z,3
2023-01-02T02:56:13.724Z,2
2023-01-02T02:57:13.808Z,2
2023-01-02T02:58:13.701Z,2
2023-01-02T02:59:13.719Z,2
2023-01-02T03:00:13.708Z,2
2023-01-02T03:01:13.792Z,2
2023-01-02T03:02:13.854Z,2
2023-01-02T03:03:13.778Z,2
2023-01-02T03:04:13.719Z,2
2023-01-02T03:05:13.707Z,2
2023-01-02T03:06:13.735Z,2
2023-01-02T03:07:13.860Z,2
2023-01-02T03:08:32.968Z,2
2023-01-02T03:09:13.718Z,2
2023-01-02T03:10:13.705Z,2
2023-01-02T03:11:13.739Z,2
2023-01-02T03:12:13.720Z,2
2023-01-02T03:13:13.741Z,2
2023-01-02T03:14:13.709Z,3
2023-01-02T03:15:13.918Z,2
2023-01-02T03:16:13.763Z,2
2023-01-02T03:17:13.691Z,2
2023-01-02T03:18:13.739Z,2
2023-01-02T03:19:13.717Z,3
2023-01-02T03:20:13.712Z,2
2023-01-02T03:21:13.736Z,2
2023-01-02T03:22:13.718Z,2
2023-01-02T03:23:13.705Z,2
2023-01-02T03:24:13.739Z,2
2023-01-02T03:25:13.695Z,3
2023-01-02T03:26:13.734Z,2
2023-01-02T03:27:13.710Z,2
2023-01-02T03:28:13.706Z,2
2023-01-02T03:29:13.699Z,2
2023-01-02T03:30:13.698Z,2
2023-01-02T03:31:13.858Z,2
2023-01-02T03:32:13.751Z,2
2023-01-02T03:33:13.709Z,3
2023-01-02T03:34:13.709Z,2
2023-01-02T03:35:13.718Z,2
2023-01-02T03:36:13.714Z,3
2023-01-02T03:37:13.712Z,2
2023-01-02T03:38:13.695Z,2
2023-01-02T03:39:13.735Z,2
2023-01-02T03:40:13.704Z,2
2023-01-02T03:41:13.720Z,3
2023-01-02T03:42:13.700Z,2
2023-01-02T03:43:13.731Z,2
2023-01-02T03:44:13.733Z,2
2023-01-02T03:45:13.707Z,2
2023-01-02T03:46:13.848Z,3
2023-01-02T03:47:13.711Z,2
2023-01-02T03:48:13.775Z,2
2023-01-02T03:49:13.702Z,2
2023-01-02T03:50:13.708Z,2
2023-01-02T03:51:13.735Z,2
2023-01-02T03:52:13.713Z,3
2023-01-02T03:53:13.740Z,2
2023-01-02T03:54:13.731Z,2
2023-01-02T03:55:13.713Z,2
2023-01-02T03:56:13.744Z,2
2023-01-02T03:57:13.703Z,2
2023-01-02T03:58:13.703Z,2
2023-01-02T03:59:13.723Z,3
2023-01-02T04:00:13.712Z,2
2023-01-02T04:01:13.802Z,2
2023-01-02T04:02:13.902Z,2
2023-01-02T04:03:13.733Z,2
2023-01-02T04:04:13.713Z,2
2023-01-02T04:05:13.714Z,3
2023-01-02T04:06:13.763Z,2
2023-01-02T04:07:13.740Z,3
2023-01-02T04:08:35.481Z,2
2023-01-02T04:09:13.724Z,2
2023-01-02T04:10:13.728Z,2
2023-01-02T04:11:13.738Z,2
2023-01-02T04:12:13.730Z,2
2023-01-02T04:13:13.712Z,2
2023-01-02T04:14:13.715Z,2
2023-01-02T04:15:13.862Z,2
2023-01-02T04:16:13.760Z,3
2023-01-02T04:17:13.701Z,2
2023-01-02T04:18:13.770Z,2
2023-01-02T04:19:13.715Z,2
2023-01-02T04:20:13.726Z,3
2023-01-02T04:21:13.741Z,2
2023-01-02T04:22:13.723Z,2
2023-01-02T04:23:13.726Z,2
2023-01-02T04:24:13.742Z,2
2023-01-02T04:25:13.790Z,2
2023-01-02T04:26:14.062Z,2
2023-01-02T04:27:13.754Z,3
2023-01-02T04:28:13.742Z,2
2023-01-02T04:29:13.707Z,2
2023-01-02T04:30:13.743Z,2
2023-01-02T04:31:13.757Z,2
2023-01-02T04:32:13.727Z,2
2023-01-02T04:33:13.727Z,3
2023-01-02T04:34:13.715Z,3
2023-01-02T04:35:13.717Z,2
2023-01-02T04:36:13.738Z,2
2023-01-02T04:37:13.717Z,3
2023-01-02T04:38:13.712Z,2
2023-01-02T04:39:13.748Z,3
2023-01-02T04:40:13.716Z,3
2023-01-02T04:41:13.794Z,2
2023-01-02T04:42:13.743Z,2
2023-01-02T04:43:13.719Z,2
2023-01-02T04:44:13.710Z,3
2023-01-02T04:45:13.720Z,2
2023-01-02T04:46:13.884Z,2
2023-01-02T04:47:19.805Z,3
2023-01-02T04:48:13.777Z,2
2023-01-02T04:49:13.715Z,2
2023-01-02T04:50:13.705Z,2
2023-01-02T04:51:13.745Z,2
2023-01-02T04:52:13.721Z,2
2023-01-02T04:53:13.712Z,2
2023-01-02T04:54:13.731Z,2
2023-01-02T04:55:13.748Z,2
2023-01-02T04:56:13.883Z,2
2023-01-02T04:57:13.720Z,3
2023-01-02T04:58:13.740Z,2
2023-01-02T04:59:13.714Z,2
2023-01-02T05:00:13.729Z,2
2023-01-02T05:01:13.802Z,2
2023-01-02T05:02:13.849Z,2
2023-01-02T05:03:13.758Z,2
2023-01-02T05:04:13.710Z,3
2023-01-02T05:05:13.733Z,3
2023-01-02T05:06:13.763Z,2
2023-01-02T05:07:13.728Z,2
2023-01-02T05:09:13.742Z,3
2023-01-02T05:10:13.731Z,2
2023-01-02T05:11:13.780Z,2
2023-01-02T05:12:13.718Z,3
2023-01-02T05:13:13.708Z,3
2023-01-02T05:14:13.743Z,2
2023-01-02T05:15:13.738Z,2
2023-01-02T05:16:13.813Z,2
2023-01-02T05:17:13.751Z,2
2023-01-02T05:18:13.751Z,2
2023-01-02T05:19:13.725Z,3
2023-01-02T05:20:13.720Z,3
2023-01-02T05:21:13.745Z,3
2023-01-02T05:22:13.850Z,2
2023-01-02T05:23:13.731Z,3
2023-01-02T05:24:13.746Z,2
2023-01-02T05:25:13.727Z,3
2023-01-02T05:26:13.745Z,3
2023-01-02T05:27:13.759Z,3
2023-01-02T05:28:13.742Z,2
2023-01-02T05:29:13.747Z,2
2023-01-02T05:30:13.721Z,2
2023-01-02T05:31:13.762Z,3
2023-01-02T05:32:13.794Z,3
2023-01-02T05:33:13.758Z,2
2023-01-02T05:34:13.729Z,3
2023-01-02T05:35:13.719Z,2
2023-01-02T05:36:13.738Z,2
2023-01-02T05:37:13.744Z,2
2023-01-02T05:38:13.735Z,2
2023-01-02T05:39:13.738Z,2
2023-01-02T05:40:13.725Z,2
2023-01-02T05:41:13.751Z,3
2023-01-02T05:42:13.719Z,2
2023-01-02T05:43:13.761Z,2
2023-01-02T05:44:13.737Z,2
2023-01-02T05:45:13.735Z,3
2023-01-02T05:46:13.815Z,3
2023-01-02T05:47:16.466Z,2
2023-01-02T05:48:13.753Z,2
2023-01-02T05:49:13.735Z,2
2023-01-02T05:50:13.718Z,2
2023-01-02T05:51:13.758Z,2
2023-01-02T05:52:13.729Z,3
2023-01-02T05:53:13.775Z,3
2023-01-02T05:54:13.754Z,2
2023-01-02T05:55:13.739Z,2
2023-01-02T05:56:13.774Z,2
2023-01-02T05:57:13.743Z,3
2023-01-02T05:58:13.747Z,3
2023-01-02T05:59:13.725Z,2
2023-01-02T06:00:13.733Z,2
2023-01-02T06:01:13.821Z,3
2023-01-02T06:02:13.858Z,2
2023-01-02T06:03:13.842Z,2
2023-01-02T06:04:19.452Z,2
2023-01-02T06:05:13.752Z,3
2023-01-02T06:06:13.746Z,2
2023-01-02T06:07:13.712Z,2
2023-01-02T06:08:13.725Z,2
2023-01-02T06:09:13.741Z,3
2023-01-02T06:10:13.739Z,3
2023-01-02T06:11:14.079Z,2
2023-01-02T06:12:13.726Z,2
2023-01-02T06:13:13.751Z,3
2023-01-02T06:14:13.784Z,2
2023-01-02T06:15:13.736Z,2
2023-01-02T06:16:13.800Z,2
2023-01-02T06:17:13.739Z,2
2023-01-02T06:18:13.727Z,2
2023-01-02T06:19:13.775Z,3
2023-01-02T06:20:13.787Z,2
2023-01-02T06:21:13.735Z,2
2023-01-02T06:22:13.747Z,2
2023-01-02T06:23:13.732Z,3
2023-01-02T06:24:13.754Z,2
2023-01-02T06:25:13.736Z,2
2023-01-02T06:26:13.736Z,2
2023-01-02T06:27:13.729Z,2
2023-01-02T06:28:13.751Z,2
2023-01-02T06:29:13.725Z,2
2023-01-02T06:30:13.770Z,2
2023-01-02T06:31:14.011Z,2
2023-01-02T06:32:13.780Z,2
2023-01-02T06:33:13.733Z,2
2023-01-02T06:34:13.745Z,2
2023-01-02T06:35:13.723Z,2
2023-01-02T06:36:13.758Z,2
2023-01-02T06:37:13.810Z,2
2023-01-02T06:38:13.733Z,3
2023-01-02T06:39:13.754Z,2
2023-01-02T06:40:13.739Z,2
2023-01-02T06:41:13.740Z,2
2023-01-02T06:42:13.747Z,2
2023-01-02T06:43:13.743Z,3
2023-01-02T06:44:13.762Z,2
2023-01-02T06:45:13.728Z,2
2023-01-02T06:46:13.806Z,2
2023-01-02T06:47:13.733Z,3
2023-01-02T06:48:13.758Z,2
2023-01-02T06:49:13.735Z,2
2023-01-02T06:50:13.867Z,2
2023-01-02T06:51:13.753Z,2
2023-01-02T06:52:13.729Z,2
2023-01-02T06:53:13.744Z,2
2023-01-02T06:54:13.758Z,2
2023-01-02T06:55:13.732Z,2
2023-01-02T06:56:14.056Z,2
2023-01-02T06:57:13.731Z,2
2023-01-02T06:58:19.211Z,3
2023-01-02T06:59:13.725Z,3
2023-01-02T07:00:13.747Z,2
2023-01-02T07:01:13.829Z,3
2023-01-02T07:02:13.863Z,2
2023-01-02T07:03:13.743Z,3
2023-01-02T07:04:13.754Z,3
2023-01-02T07:05:13.744Z,3
2023-01-02T07:06:13.750Z,3
2023-01-02T07:07:13.743Z,2
2023-01-02T07:08:13.742Z,2
2023-01-02T07:09:13.749Z,2
2023-01-02T07:10:13.760Z,2
2023-01-02T07:11:13.791Z,2
2023-01-02T07:12:13.735Z,2
2023-01-02T07:13:13.743Z,3
2023-01-02T07:14:13.821Z,2
2023-01-02T07:15:13.731Z,2
2023-01-02T07:16:13.786Z,2
2023-01-02T07:17:13.737Z,2
2023-01-02T07:18:13.739Z,2
2023-01-02T07:19:23.783Z,2
2023-01-02T07:20:13.731Z,2
2023-01-02T07:21:13.845Z,3
2023-01-02T07:22:13.737Z,2
2023-01-02T07:23:13.754Z,3
2023-01-02T07:24:13.764Z,2
2023-01-02T07:25:13.758Z,3
2023-01-02T07:26:13.757Z,2
2023-01-02T07:27:13.740Z,2
2023-01-02T07:28:13.732Z,2
2023-01-02T07:29:13.721Z,2
2023-01-02T07:30:13.736Z,2
2023-01-02T07:31:13.773Z,2
2023-01-02T07:32:13.806Z,2
2023-01-02T07:33:13.737Z,2
2023-01-02T07:34:13.748Z,2
2023-01-02T07:35:13.752Z,2
2023-01-02T07:36:13.767Z,2
2023-01-02T07:37:13.767Z,2
2023-01-02T07:38:13.730Z,2
2023-01-02T07:39:13.824Z,2
2023-01-02T07:40:13.742Z,2
2023-01-02T07:41:14.033Z,3
2023-01-02T07:42:13.729Z,2
2023-01-02T07:43:13.750Z,3
2023-01-02T07:44:13.743Z,3
2023-01-02T07:45:13.743Z,3
2023-01-02T07:46:13.820Z,2
2023-01-02T07:47:13.754Z,3
2023-01-02T07:48:13.737Z,2
2023-01-02T07:49:13.729Z,2
2023-01-02T07:50:13.735Z,2
2023-01-02T07:51:13.732Z,2
2023-01-02T07:52:13.784Z,2
2023-01-02T07:53:13.756Z,2
2023-01-02T07:54:13.759Z,3
2023-01-02T07:55:13.760Z,3
2023-01-02T07:56:13.752Z,2
2023-01-02T07:57:13.761Z,2
2023-01-02T07:58:13.735Z,3
2023-01-02T07:59:13.744Z,2
2023-01-02T08:00:13.774Z,2
2023-01-02T08:01:13.898Z,3
2023-01-02T08:02:13.905Z,2
2023-01-02T08:03:13.734Z,3
2023-01-02T08:04:13.804Z,2
2023-01-02T08:05:13.760Z,2
2023-01-02T08:06:13.742Z,2
2023-01-02T08:07:13.745Z,2
2023-01-02T08:08:13.776Z,3
2023-01-02T08:09:13.771Z,2
2023-01-02T08:10:13.751Z,2
2023-01-02T08:11:13.786Z,2
2023-01-02T08:12:13.773Z,2
2023-01-02T08:13:13.754Z,2
2023-01-02T08:14:17.097Z,2
2023-01-02T08:15:13.760Z,2
2023-01-02T08:16:13.751Z,2
2023-01-02T08:17:13.792Z,2
2023-01-02T08:18:13.757Z,2
2023-01-02T08:19:29.456Z,2
2023-01-02T08:20:13.759Z,2
2023-01-02T08:21:13.775Z,2
2023-01-02T08:22:13.764Z,2
2023-01-02T08:23:13.765Z,2
2023-01-02T08:24:13.774Z,2
2023-01-02T08:25:13.848Z,2
2023-01-02T08:26:13.738Z,2
2023-01-02T08:27:13.747Z,2
2023-01-02T08:28:13.759Z,2
2023-01-02T08:29:13.741Z,2
2023-01-02T08:30:13.741Z,2
2023-01-02T08:31:13.779Z,2
2023-01-02T08:32:13.798Z,2
2023-01-02T08:33:13.772Z,2
2023-01-02T08:34:13.748Z,2
2023-01-02T08:35:13.772Z,2
2023-01-02T08:36:13.756Z,2
2023-01-02T08:37:13.765Z,2
2023-01-02T08:38:13.759Z,2
2023-01-02T08:39:13.752Z,2
2023-01-02T08:40:13.779Z,2
2023-01-02T08:41:13.744Z,2
2023-01-02T08:42:13.794Z,2
2023-01-02T08:43:15.176Z,2
2023-01-02T08:44:13.776Z,2
2023-01-02T08:45:13.749Z,2
2023-01-02T08:46:13.845Z,2
2023-01-02T08:47:13.767Z,2
2023-01-02T08:48:20.585Z,2
2023-01-02T08:49:13.765Z,2
2023-01-02T08:50:13.752Z,2
2023-01-02T08:51:13.744Z,2
2023-01-02T08:52:13.926Z,2
2023-01-02T08:53:13.780Z,2
2023-01-02T08:54:13.801Z,2
2023-01-02T08:55:13.758Z,2
2023-01-02T08:56:13.752Z,2
2023-01-02T08:57:13.751Z,2
2023-01-02T08:58:13.755Z,2
2023-01-02T08:59:13.747Z,2
2023-01-02T09:00:13.748Z,2
2023-01-02T09:01:13.805Z,2
2023-01-02T09:02:13.861Z,2
2023-01-02T09:03:13.803Z,2
2023-01-02T09:04:13.902Z,2
2023-01-02T09:05:13.759Z,2
2023-01-02T09:06:18.131Z,2
2023-01-02T09:07:13.741Z,2
2023-01-02T09:08:13.747Z,2
2023-01-02T09:09:13.791Z,3
2023-01-02T09:10:13.784Z,2
2023-01-02T09:11:13.739Z,3
2023-01-02T09:12:13.745Z,3
2023-01-02T09:13:13.766Z,2
2023-01-02T09:14:13.782Z,2
2023-01-02T09:15:13.739Z,2
2023-01-02T09:16:13.828Z,3
2023-01-02T09:17:13.744Z,2
2023-01-02T09:18:13.889Z,2
2023-01-02T09:19:35.497Z,2
2023-01-02T09:20:13.770Z,2
2023-01-02T09:21:13.759Z,2
2023-01-02T09:22:13.744Z,2
2023-01-02T09:23:13.772Z,3
2023-01-02T09:24:13.763Z,3
2023-01-02T09:25:17.545Z,3
2023-01-02T09:26:13.751Z,3
2023-01-02T09:27:13.836Z,3
2023-01-02T09:28:13.762Z,3
2023-01-02T09:29:13.744Z,3
2023-01-02T09:30:13.752Z,2
2023-01-02T09:31:13.804Z,2
2023-01-02T09:32:13.755Z,2
2023-01-02T09:33:13.772Z,2
2023-01-02T09:34:13.753Z,2
2023-01-02T09:35:13.751Z,2
2023-01-02T09:36:13.762Z,3
2023-01-02T09:37:13.762Z,3
2023-01-02T09:38:13.777Z,2
2023-01-02T09:39:13.832Z,2
2023-01-02T09:40:13.776Z,2
2023-01-02T09:41:13.752Z,2
2023-01-02T09:42:13.749Z,3
2023-01-02T09:43:13.756Z,3
2023-01-02T09:44:13.764Z,2
2023-01-02T09:45:13.773Z,3
2023-01-02T09:46:13.845Z,3
2023-01-02T09:47:13.768Z,3
2023-01-02T09:48:13.771Z,3
2023-01-02T09:49:13.749Z,2
2023-01-02T09:50:13.742Z,2
2023-01-02T09:51:13.747Z,2
2023-01-02T09:52:13.785Z,2
2023-01-02T09:53:14.018Z,2
2023-01-02T09:54:13.987Z,2
2023-01-02T09:55:13.949Z,2
2023-01-02T09:56:17.818Z,2
2023-01-02T09:57:13.760Z,2
2023-01-02T09:58:13.762Z,2
2023-01-02T09:59:13.754Z,2
2023-01-02T10:00:13.776Z,2
2023-01-02T10:01:13.818Z,2
2023-01-02T10:02:13.756Z,2
2023-01-02T10:03:13.913Z,2
2023-01-02T10:04:13.801Z,1
2023-01-02T10:05:13.764Z,2
2023-01-02T10:06:13.766Z,2
2023-01-02T10:07:13.758Z,2
2023-01-02T10:08:13.769Z,1
2023-01-02T10:09:14.003Z,2
2023-01-02T10:10:13.769Z,2
2023-01-02T10:11:14.148Z,2
2023-01-02T10:12:13.765Z,2
2023-01-02T10:13:13.773Z,2
2023-01-02T10:14:21.345Z,2
2023-01-02T10:15:13.813Z,2
2023-01-02T10:16:13.842Z,2
2023-01-02T10:17:13.767Z,1
2023-01-02T10:18:13.772Z,1
2023-01-02T10:20:15.688Z,1
2023-01-02T10:21:13.769Z,1
2023-01-02T10:22:13.752Z,1
2023-01-02T10:23:13.760Z,1
2023-01-02T10:24:13.751Z,1
2023-01-02T10:25:13.767Z,1
2023-01-02T10:26:13.771Z,1
2023-01-02T10:27:13.903Z,2
2023-01-02T10:28:13.997Z,1
2023-01-02T10:29:13.760Z,2
2023-01-02T10:30:13.750Z,2
2023-01-02T10:31:13.794Z,2
2023-01-02T10:32:13.776Z,2
2023-01-02T10:33:13.778Z,2
2023-01-02T10:34:13.773Z,1
2023-01-02T10:35:13.829Z,2
2023-01-02T10:36:13.778Z,2
2023-01-02T10:37:13.763Z,2
2023-01-02T10:38:13.761Z,1
2023-01-02T10:39:13.778Z,2
2023-01-02T10:40:13.805Z,1
2023-01-02T10:41:13.762Z,1
2023-01-02T10:42:13.770Z,1
2023-01-02T10:43:13.773Z,1
2023-01-02T10:44:13.775Z,1
2023-01-02T10:45:13.792Z,1
2023-01-02T10:46:13.807Z,1
2023-01-02T10:47:13.774Z,1
2023-01-02T10:48:13.808Z,1
2023-01-02T10:49:13.790Z,1
2023-01-02T10:50:13.769Z,1
2023-01-02T10:51:13.771Z,1
2023-01-02T10:52:13.761Z,1
2023-01-02T10:53:13.776Z,1
2023-01-02T10:54:13.751Z,1
2023-01-02T10:55:13.800Z,1
2023-01-02T10:56:13.764Z,1
2023-01-02T10:57:13.748Z,2
2023-01-02T10:58:13.799Z,3
2023-01-02T10:59:13.784Z,2
2023-01-02T11:00:13.791Z,2
2023-01-02T11:01:14.115Z,2
2023-01-02T11:02:13.832Z,3
2023-01-02T11:03:13.853Z,2
2023-01-02T11:04:13.777Z,2
2023-01-02T11:05:13.755Z,5
2023-01-02T11:06:26.059Z,5
2023-01-02T11:07:13.789Z,4
2023-01-02T11:08:13.772Z,4
2023-01-02T11:09:13.770Z,7
2023-01-02T11:10:13.781Z,5
2023-01-02T11:11:13.761Z,4
2023-01-02T11:12:13.917Z,6
2023-01-02T11:13:13.779Z,4
2023-01-02T11:14:13.745Z,7
2023-01-02T11:15:13.764Z,15
2023-01-02T11:16:13.827Z,26
2023-01-02T11:17:13.764Z,21
2023-01-02T11:18:13.858Z,15
2023-01-02T11:19:13.753Z,13
2023-01-02T11:20:13.764Z,15
2023-01-02T11:21:13.765Z,28
2023-01-02T11:22:13.770Z,31
2023-01-02T11:23:13.779Z,28
2023-01-02T11:24:13.758Z,21
2023-01-02T11:25:13.776Z,37
2023-01-02T11:26:13.769Z,18
2023-01-02T11:27:13.769Z,11
2023-01-02T11:28:13.789Z,18
2023-01-02T11:29:13.789Z,24
2023-01-02T11:30:13.771Z,22
2023-01-02T11:31:13.954Z,27
2023-01-02T11:32:13.746Z,29
2023-01-02T11:33:13.789Z,28
2023-01-02T11:34:13.770Z,19
2023-01-02T11:35:13.757Z,24
2023-01-02T11:36:13.760Z,20
2023-01-02T11:37:13.756Z,23
2023-01-02T11:38:13.779Z,12
2023-01-02T11:39:13.758Z,12
2023-01-02T11:40:13.812Z,15
2023-01-02T11:41:13.844Z,23
2023-01-02T11:42:13.757Z,18
2023-01-02T11:43:13.764Z,13
2023-01-02T11:44:18.754Z,11
2023-01-02T11:45:13.759Z,12
2023-01-02T11:46:13.802Z,26
2023-01-02T11:47:13.774Z,39
2023-01-02T11:48:13.789Z,26
2023-01-02T11:49:13.763Z,12
2023-01-02T11:50:13.786Z,9
2023-01-02T11:51:17.360Z,10
2023-01-02T11:52:13.764Z,13
2023-01-02T11:53:13.768Z,10
2023-01-02T11:54:13.765Z,8
2023-01-02T11:55:13.776Z,5
2023-01-02T11:56:13.769Z,4
2023-01-02T11:57:18.596Z,3
2023-01-02T11:58:13.761Z,3
2023-01-02T11:59:13.775Z,4
2023-01-02T12:00:13.797Z,3
2023-01-02T12:01:13.827Z,3
2023-01-02T12:02:13.945Z,2
2023-01-02T12:03:18.336Z,2
2023-01-02T12:04:13.781Z,2
2023-01-02T12:05:13.772Z,2
2023-01-02T12:06:13.772Z,2
2023-01-02T12:07:13.802Z,1
2023-01-02T12:08:13.844Z,1
2023-01-02T12:09:13.769Z,1
2023-01-02T12:10:13.788Z,1
2023-01-02T12:11:13.766Z,1
2023-01-02T12:12:13.783Z,1
2023-01-02T12:13:13.771Z,1
2023-01-02T12:14:13.779Z,1
2023-01-02T12:15:13.789Z,1
2023-01-02T12:16:13.812Z,1
2023-01-02T12:17:13.768Z,1
2023-01-02T12:18:13.775Z,1
2023-01-02T12:19:13.764Z,1
2023-01-02T12:20:13.773Z,1
2023-01-02T12:21:13.767Z,1
2023-01-02T12:22:13.811Z,1
2023-01-02T12:23:13.775Z,1
2023-01-02T12:24:13.793Z,1
2023-01-02T12:25:13.794Z,1
2023-01-02T12:26:13.789Z,1
2023-01-02T12:27:13.768Z,1
2023-01-02T12:28:13.782Z,1
2023-01-02T12:29:13.762Z,1
2023-01-02T12:30:13.798Z,1
2023-01-02T12:31:13.893Z,1
2023-01-02T12:32:13.783Z,1
2023-01-02T12:33:13.775Z,1
2023-01-02T12:34:13.783Z,1
2023-01-02T12:35:13.780Z,1
2023-01-02T12:36:13.762Z,1
2023-01-02T12:37:13.765Z,1
2023-01-02T12:38:16.877Z,1
2023-01-02T12:39:13.762Z,1
2023-01-02T12:40:23.788Z,1
2023-01-02T12:41:13.769Z,1
2023-01-02T12:42:13.765Z,1
2023-01-02T12:43:13.782Z,1
2023-01-02T12:44:13.767Z,1
2023-01-02T12:45:13.798Z,1
2023-01-02T12:46:13.816Z,1
2023-01-02T12:47:13.784Z,1
2023-01-02T12:48:13.787Z,1
2023-01-02T12:49:13.772Z,1
2023-01-02T12:50:13.770Z,1
2023-01-02T12:51:13.774Z,1
2023-01-02T12:52:13.771Z,1
2023-01-02T12:53:13.783Z,1
2023-01-02T12:54:18.614Z,1
2023-01-02T12:55:13.772Z,1
2023-01-02T12:56:13.773Z,1
2023-01-02T12:57:18.441Z,1
2023-01-02T12:58:13.779Z,1
2023-01-02T12:59:13.775Z,1
2023-01-02T13:00:13.806Z,1
2023-01-02T13:01:14.233Z,1
2023-01-02T13:02:13.998Z,1
2023-01-02T13:03:20.171Z,1
2023-01-02T13:04:13.788Z,1
2023-01-02T13:05:13.857Z,2
2023-01-02T13:06:43.651Z,2
2023-01-02T13:07:13.891Z,2
2023-01-02T13:08:13.790Z,2
2023-01-02T13:09:20.058Z,2
2023-01-02T13:10:14.084Z,2
2023-01-02T13:11:13.811Z,2
2023-01-02T13:12:13.850Z,2
2023-01-02T13:13:13.881Z,2
2023-01-02T13:14:13.768Z,2
2023-01-02T13:15:13.769Z,2
2023-01-02T13:16:24.569Z,2
2023-01-02T13:17:13.842Z,2
2023-01-02T13:18:13.787Z,2
2023-01-02T13:19:13.787Z,2
2023-01-02T13:20:13.914Z,2
2023-01-02T13:21:13.773Z,2
2023-01-02T13:22:13.778Z,2
2023-01-02T13:23:13.784Z,2
2023-01-02T13:24:13.783Z,2
2023-01-02T13:25:13.766Z,2
2023-01-02T13:26:13.788Z,2
2023-01-02T13:27:13.773Z,2
2023-01-02T13:28:13.777Z,2
2023-01-02T13:29:13.782Z,1
2023-01-02T13:30:18.288Z,2
2023-01-02T13:32:13.844Z,2
2023-01-02T13:33:13.893Z,2
2023-01-02T13:34:13.810Z,2
2023-01-02T13:35:13.764Z,2
2023-01-02T13:36:17.220Z,3
2023-01-02T13:37:13.790Z,3
2023-01-02T13:38:13.770Z,5
2023-01-02T13:39:13.832Z,5
2023-01-02T13:40:29.471Z,5
2023-01-02T13:41:13.780Z,13
2023-01-02T13:42:13.784Z,19
2023-01-02T13:43:13.913Z,13
2023-01-02T13:44:13.778Z,11
2023-01-02T13:45:13.787Z,10
2023-01-02T13:46:30.299Z,10
2023-01-02T13:47:19.165Z,21
2023-01-02T13:48:13.778Z,28
2023-01-02T13:49:13.800Z,33
2023-01-02T13:50:13.797Z,28
2023-01-02T13:51:13.816Z,23
2023-01-02T13:52:13.844Z,20
2023-01-02T13:53:13.790Z,28
2023-01-02T13:54:16.660Z,30
2023-01-02T13:55:13.769Z,23
2023-01-02T13:56:13.788Z,27
2023-01-02T13:57:13.794Z,25
2023-01-02T13:58:13.782Z,24
2023-01-02T13:59:42.083Z,36
2023-01-02T14:00:13.786Z,33
2023-01-02T14:01:13.895Z,37
2023-01-02T14:02:13.979Z,28
2023-01-02T14:03:13.816Z,24
2023-01-02T14:04:13.809Z,13
2023-01-02T14:05:13.768Z,17
2023-01-02T14:06:13.776Z,13
2023-01-02T14:07:13.788Z,8
2023-01-02T14:08:13.783Z,6
2023-01-02T14:09:13.785Z,4
2023-01-02T14:10:13.816Z,4
2023-01-02T14:11:13.821Z,3
2023-01-02T14:12:13.773Z,4
2023-01-02T14:13:13.776Z,4
2023-01-02T14:14:13.795Z,5
2023-01-02T14:15:13.783Z,6
2023-01-02T14:16:13.865Z,5
2023-01-02T14:17:13.777Z,5
2023-01-02T14:18:13.785Z,3
2023-01-02T14:19:13.781Z,3
2023-01-02T14:20:13.777Z,3
2023-01-02T14:21:13.763Z,3
2023-01-02T14:22:13.799Z,3
2023-01-02T14:23:13.779Z,3
2023-01-02T14:24:18.221Z,3
2023-01-02T14:25:13.776Z,3
2023-01-02T14:26:13.788Z,3
2023-01-02T14:27:13.776Z,3
2023-01-02T14:28:13.763Z,2
2023-01-02T14:29:13.788Z,2
2023-01-02T14:30:13.784Z,2
2023-01-02T14:31:13.841Z,2
2023-01-02T14:32:13.986Z,2
2023-01-02T14:33:13.772Z,2
2023-01-02T14:34:13.791Z,2
2023-01-02T14:35:13.811Z,2
2023-01-02T14:36:13.906Z,2
2023-01-02T14:37:13.800Z,2
2023-01-02T14:38:13.770Z,2
2023-01-02T14:39:13.790Z,2
2023-01-02T14:40:35.500Z,2
2023-01-02T14:41:13.819Z,2
2023-01-02T14:42:13.784Z,2
2023-01-02T14:43:13.800Z,2
2023-01-02T14:44:13.809Z,2
2023-01-02T14:45:13.788Z,2
2023-01-02T14:46:13.795Z,2
2023-01-02T14:47:13.779Z,2
2023-01-02T14:48:13.785Z,2
2023-01-02T14:49:24.876Z,2